Time;durP1;ratioP1;P1;durP2;ratioP2;P2;SDS_P1;SDS_P2;PMS_P1;PMS_P2;Temp;Humidity;BMP_temperature;BMP_pressure;BME280_temperature;BME280_humidity;BME280_pressure;Samples;Min_cycle;Max_cycle;Signal;HPM_P1;HPM_P2
2021/12/03 00:02:24;;;;;;;4.68;1.13;;;;;;;;;;4974312;28;20074;-82
2021/12/03 00:04:50;;;;;;;6.13;1.20;;;;;;;;;;4972545;28;20050;-82
2021/12/03 00:07:16;;;;;;;6.38;1.90;;;;;;;;;;4973010;28;20043;-82
2021/12/03 00:09:42;;;;;;;5.43;1.30;;;;;;;;;;4972434;28;20038;-82
2021/12/03 00:12:08;;;;;;;6.45;1.30;;;;;;;;;;4972742;28;20061;-82
2021/12/03 00:14:35;;;;;;;6.13;1.58;;;;;;;;;;4972776;28;20042;-82
2021/12/03 00:17:01;;;;;;;7.60;1.70;;;;;;;;;;4974115;28;20035;-82
2021/12/03 00:19:27;;;;;;;6.95;1.85;;;;;;;;;;4972689;28;20046;-82
2021/12/03 00:21:53;;;;;;;6.55;1.50;;;;;;;;;;4956338;28;20109;-82
2021/12/03 00:24:19;;;;;;;4.20;1.50;;;;;;;;;;4974801;28;20097;-82
2021/12/03 00:26:45;;;;;;;6.80;1.60;;;;;;;;;;4977969;28;20081;-82
2021/12/03 00:29:12;;;;;;;4.78;1.60;;;;;;;;;;4976457;28;20066;-82
2021/12/03 00:31:38;;;;;;;3.78;1.40;;;;;;;;;;4976623;28;20046;-82
2021/12/03 00:34:04;;;;;;;4.97;1.48;;;;;;;;;;4977750;28;20048;-82
2021/12/03 00:36:30;;;;;;;6.65;1.42;;;;;;;;;;4976392;28;20402;-82
2021/12/03 00:38:59;;;;;;;6.10;1.23;;;;;;;;;;4977614;28;20042;-82
2021/12/03 00:41:28;;;;;;;5.72;1.50;;;;;;;;;;4976520;28;20499;-82
2021/12/03 00:43:54;;;;;;;4.82;1.50;;;;;;;;;;4976095;28;20049;-82
2021/12/03 00:46:21;;;;;;;3.92;1.27;;;;;;;;;;4977378;28;20483;-82
2021/12/03 00:48:49;;;;;;;5.53;1.30;;;;;;;;;;4977552;28;20043;-82
2021/12/03 00:51:15;;;;;;;6.28;1.83;;;;;;;;;;4976125;28;20063;-82
2021/12/03 00:53:41;;;;;;;6.25;1.40;;;;;;;;;;4976157;28;20042;-82
2021/12/03 00:56:09;;;;;;;5.18;1.52;;;;;;;;;;4976028;28;20483;-84
2021/12/03 00:58:35;;;;;;;5.88;1.33;;;;;;;;;;4975691;28;20050;-82
2021/12/03 01:01:01;;;;;;;5.75;1.65;;;;;;;;;;4977079;28;20489;-82
2021/12/03 01:03:28;;;;;;;5.55;1.70;;;;;;;;;;4977196;28;20054;-82
2021/12/03 01:05:55;;;;;;;5.53;1.60;;;;;;;;;;4976010;28;20414;-82
2021/12/03 01:08:21;;;;;;;4.85;1.65;;;;;;;;;;4975741;28;20089;-82
2021/12/03 01:10:47;;;;;;;4.53;1.60;;;;;;;;;;4975696;28;20042;-82
2021/12/03 01:13:13;;;;;;;5.32;1.88;;;;;;;;;;4977152;28;20042;-82
2021/12/03 01:15:40;;;;;;;6.07;1.65;;;;;;;;;;4976806;28;20042;-82
2021/12/03 01:18:07;;;;;;;7.57;1.90;;;;;;;;;;4976887;28;20594;-82
2021/12/03 01:20:33;;;;;;;5.28;1.70;;;;;;;;;;4975590;28;20090;-82
2021/12/03 01:23:01;;;;;;;5.38;2.13;;;;;;;;;;4975541;28;20066;-82
2021/12/03 01:25:27;;;;;;;5.65;1.88;;;;;;;;;;4976523;28;20394;-82
2021/12/03 01:27:53;;;;;;;4.68;1.55;;;;;;;;;;4975375;28;20050;-82
2021/12/03 01:30:21;;;;;;;4.28;1.50;;;;;;;;;;4975148;28;20047;-82
2021/12/03 01:32:48;;;;;;;6.20;1.88;;;;;;;;;;4976925;28;20105;-82
2021/12/03 01:35:14;;;;;;;6.15;1.70;;;;;;;;;;4974912;28;20054;-82
2021/12/03 01:37:40;;;;;;;5.20;1.90;;;;;;;;;;4975584;28;20109;-82
2021/12/03 01:40:08;;;;;;;6.72;1.95;;;;;;;;;;4976248;28;20070;-82
2021/12/03 01:42:34;;;;;;;6.28;2.03;;;;;;;;;;4975416;28;20047;-82
2021/12/03 01:45:01;;;;;;;5.50;1.92;;;;;;;;;;4976415;28;20042;-82
2021/12/03 01:47:27;;;;;;;7.10;2.08;;;;;;;;;;4975409;28;20057;-82
2021/12/03 01:49:53;;;;;;;5.82;1.95;;;;;;;;;;4975305;28;20035;-82
2021/12/03 01:52:19;;;;;;;5.65;2.33;;;;;;;;;;4976416;28;20125;-82
2021/12/03 01:54:45;;;;;;;6.93;1.92;;;;;;;;;;4976169;28;20558;-82
2021/12/03 01:57:11;;;;;;;6.50;2.47;;;;;;;;;;4974910;28;20117;-82
2021/12/03 01:59:37;;;;;;;6.70;2.47;;;;;;;;;;4974964;28;20042;-82
2021/12/03 02:02:03;;;;;;;7.60;2.50;;;;;;;;;;4976292;28;20548;-82
2021/12/03 02:04:29;;;;;;;8.55;2.83;;;;;;;;;;4976005;28;20046;-82
2021/12/03 02:06:55;;;;;;;6.82;2.70;;;;;;;;;;4974776;28;20395;-82
2021/12/03 02:09:21;;;;;;;9.93;3.08;;;;;;;;;;4974737;28;20050;-82
2021/12/03 02:11:47;;;;;;;9.70;3.10;;;;;;;;;;4958462;28;20043;-82
2021/12/03 02:14:13;;;;;;;10.57;3.50;;;;;;;;;;4974717;28;20046;-82
2021/12/03 02:16:40;;;;;;;14.52;3.53;;;;;;;;;;4974675;28;20101;-82
2021/12/03 02:19:06;;;;;;;6.53;3.00;;;;;;;;;;4974346;28;20074;-82
2021/12/03 02:21:33;;;;;;;9.50;3.63;;;;;;;;;;4975763;28;20053;-82
2021/12/03 02:23:59;;;;;;;9.52;3.33;;;;;;;;;;4975474;28;20577;-82
2021/12/03 02:26:25;;;;;;;10.35;3.53;;;;;;;;;;4975629;28;20339;-82
2021/12/03 02:28:51;;;;;;;7.78;3.53;;;;;;;;;;4974449;28;20038;-82
2021/12/03 02:31:20;;;;;;;9.48;3.78;;;;;;;;;;4974081;28;20049;-82
2021/12/03 02:33:46;;;;;;;9.52;4.00;;;;;;;;;;4974559;28;20047;-83
2021/12/03 02:36:12;;;;;;;9.32;4.28;;;;;;;;;;4974310;28;20185;-82
2021/12/03 02:38:38;;;;;;;10.48;4.03;;;;;;;;;;4975543;28;20035;-82
2021/12/03 02:41:04;;;;;;;11.45;3.83;;;;;;;;;;4975108;28;20510;-82
2021/12/03 02:43:30;;;;;;;10.20;3.70;;;;;;;;;;4974321;28;20050;-82
2021/12/03 02:45:57;;;;;;;10.50;3.90;;;;;;;;;;4973228;28;20047;-82
2021/12/03 02:48:24;;;;;;;10.02;4.20;;;;;;;;;;4974105;28;20055;-82
2021/12/03 02:50:50;;;;;;;8.50;3.95;;;;;;;;;;4973656;28;20482;-82
2021/12/03 02:53:17;;;;;;;10.43;4.32;;;;;;;;;;4975342;28;20039;-82
2021/12/03 02:55:43;;;;;;;10.55;4.97;;;;;;;;;;4973645;28;20042;-82
2021/12/03 02:58:09;;;;;;;11.68;5.70;;;;;;;;;;4975452;28;20043;-82
2021/12/03 03:00:38;;;;;;;14.23;6.10;;;;;;;;;;4974930;28;20070;-82
2021/12/03 03:03:04;;;;;;;11.60;6.70;;;;;;;;;;4974955;28;20113;-82
2021/12/03 03:05:30;;;;;;;13.38;6.15;;;;;;;;;;4973528;28;20046;-82
2021/12/03 03:07:56;;;;;;;14.80;6.90;;;;;;;;;;4973843;28;20125;-82
2021/12/03 03:10:26;;;;;;;13.15;6.72;;;;;;;;;;4973306;28;20070;-82
2021/12/03 03:12:52;;;;;;;12.65;7.13;;;;;;;;;;4973858;28;20035;-82
2021/12/03 03:15:18;;;;;;;14.73;7.90;;;;;;;;;;4974519;28;20055;-82
2021/12/03 03:17:45;;;;;;;15.02;7.93;;;;;;;;;;4973779;28;20126;-82
2021/12/03 03:20:11;;;;;;;12.60;8.07;;;;;;;;;;4974727;28;20117;-82
2021/12/03 03:22:38;;;;;;;16.73;9.55;;;;;;;;;;4973169;28;20059;-82
2021/12/03 03:25:05;;;;;;;13.68;9.15;;;;;;;;;;4973290;28;20058;-82
2021/12/03 03:27:31;;;;;;;15.00;9.43;;;;;;;;;;4974682;28;20574;-82
2021/12/03 03:29:58;;;;;;;16.90;9.75;;;;;;;;;;4974489;28;20096;-82
2021/12/03 03:32:24;;;;;;;18.52;10.50;;;;;;;;;;4973372;28;20161;-82
2021/12/03 03:34:50;;;;;;;15.27;10.20;;;;;;;;;;4974457;28;20043;-82
2021/12/03 03:37:16;;;;;;;17.75;10.40;;;;;;;;;;4974357;28;20047;-82
2021/12/03 03:39:43;;;;;;;15.88;10.80;;;;;;;;;;4973228;28;20068;-82
2021/12/03 03:42:09;;;;;;;17.50;10.82;;;;;;;;;;4973106;28;20042;-82
2021/12/03 03:44:35;;;;;;;17.92;11.07;;;;;;;;;;4973234;28;20081;-82
2021/12/03 03:47:01;;;;;;;16.48;11.27;;;;;;;;;;4973147;28;20394;-82
2021/12/03 03:49:28;;;;;;;18.17;11.55;;;;;;;;;;4974248;28;20053;-82
2021/12/03 03:51:55;;;;;;;19.20;11.68;;;;;;;;;;4974205;28;20086;-82
2021/12/03 03:54:21;;;;;;;15.85;11.55;;;;;;;;;;4974498;28;20194;-82
2021/12/03 03:56:47;;;;;;;22.38;11.38;;;;;;;;;;4974253;28;20078;-82
2021/12/03 03:59:17;;;;;;;17.35;11.27;;;;;;;;;;4973237;28;20061;-82
2021/12/03 04:01:43;;;;;;;16.10;12.07;;;;;;;;;;4956460;28;20050;-82
2021/12/03 04:04:09;;;;;;;18.00;12.35;;;;;;;;;;4972791;28;20085;-82
2021/12/03 04:06:35;;;;;;;15.02;11.50;;;;;;;;;;4974029;28;20042;-82
2021/12/03 04:09:01;;;;;;;21.50;11.60;;;;;;;;;;4974279;28;20046;-82
2021/12/03 04:11:27;;;;;;;20.00;11.90;;;;;;;;;;4973749;28;20038;-82
2021/12/03 04:13:53;;;;;;;19.25;12.00;;;;;;;;;;4972740;28;20051;-82
2021/12/03 04:16:19;;;;;;;15.32;11.15;;;;;;;;;;4972505;28;20412;-82
2021/12/03 04:18:46;;;;;;;16.92;10.80;;;;;;;;;;4972868;28;20398;-82
2021/12/03 04:21:12;;;;;;;15.55;10.80;;;;;;;;;;4972459;28;20051;-82
2021/12/03 04:23:38;;;;;;;16.02;10.65;;;;;;;;;;4973636;28;20189;-82
2021/12/03 04:26:04;;;;;;;15.10;11.07;;;;;;;;;;4973752;28;20050;-82
2021/12/03 04:28:30;;;;;;;17.38;10.88;;;;;;;;;;4972822;28;20046;-82
2021/12/03 04:30:56;;;;;;;15.63;10.20;;;;;;;;;;4973732;28;20203;-82
2021/12/03 04:33:22;;;;;;;14.52;10.40;;;;;;;;;;4972618;28;20175;-82
2021/12/03 04:35:48;;;;;;;15.18;10.68;;;;;;;;;;4973893;28;20447;-82
2021/12/03 04:38:14;;;;;;;17.58;11.15;;;;;;;;;;4974041;28;20039;-82
2021/12/03 04:40:41;;;;;;;15.45;10.30;;;;;;;;;;4972559;28;20053;-82
2021/12/03 04:43:07;;;;;;;16.20;10.75;;;;;;;;;;4972529;28;20065;-82
2021/12/03 04:45:33;;;;;;;15.23;9.85;;;;;;;;;;4972325;28;20081;-82
2021/12/03 04:48:00;;;;;;;15.55;9.82;;;;;;;;;;4972759;28;20050;-82
2021/12/03 04:50:27;;;;;;;14.25;10.10;;;;;;;;;;4973573;28;20046;-82
2021/12/03 04:52:53;;;;;;;17.70;11.02;;;;;;;;;;4972654;28;20031;-82
2021/12/03 04:55:20;;;;;;;16.15;10.18;;;;;;;;;;4972362;28;20047;-83
2021/12/03 04:57:46;;;;;;;17.33;10.63;;;;;;;;;;4973401;28;20475;-82
2021/12/03 05:00:16;;;;;;;15.93;9.85;;;;;;;;;;4972237;28;20057;-82
2021/12/03 05:02:42;;;;;;;15.90;10.35;;;;;;;;;;4972536;28;20546;-82
2021/12/03 05:05:08;;;;;;;17.75;10.10;;;;;;;;;;4973762;28;20070;-82
2021/12/03 05:10:04;;;;;;;14.02;9.85;;;;;;;;;;4975238;28;20089;-82
2021/12/03 05:12:30;;;;;;;14.30;10.00;;;;;;;;;;4975699;28;20043;-83
2021/12/03 05:14:56;;;;;;;17.40;10.60;;;;;;;;;;4976920;28;20053;-82
2021/12/03 05:17:22;;;;;;;18.55;10.57;;;;;;;;;;4975533;28;20053;-82
2021/12/03 05:19:48;;;;;;;13.88;10.27;;;;;;;;;;4976901;28;20047;-82
2021/12/03 05:22:14;;;;;;;16.65;10.70;;;;;;;;;;4975279;28;20071;-82
2021/12/03 05:24:45;;;;;;;17.00;11.23;;;;;;;;;;4976778;28;20055;-82
2021/12/03 05:27:11;;;;;;;19.50;11.00;;;;;;;;;;4976745;28;20039;-82
2021/12/03 05:29:37;;;;;;;15.05;9.52;;;;;;;;;;4975444;28;20047;-82
2021/12/03 05:32:03;;;;;;;14.45;9.82;;;;;;;;;;4976667;28;20043;-82
2021/12/03 05:34:29;;;;;;;18.33;9.95;;;;;;;;;;4959312;28;20056;-82
2021/12/03 05:36:55;;;;;;;12.95;9.50;;;;;;;;;;4976539;28;20051;-82
2021/12/03 05:39:21;;;;;;;16.33;9.27;;;;;;;;;;4976763;28;20128;-82
2021/12/03 05:41:47;;;;;;;14.80;9.95;;;;;;;;;;4975150;28;20495;-82
2021/12/03 05:44:13;;;;;;;11.27;8.77;;;;;;;;;;4975437;28;20479;-82
2021/12/03 05:46:39;;;;;;;12.95;9.77;;;;;;;;;;4975169;28;20130;-82
2021/12/03 05:49:06;;;;;;;14.13;8.85;;;;;;;;;;4975360;28;20474;-82
2021/12/03 05:51:32;;;;;;;15.57;9.43;;;;;;;;;;4974875;28;20418;-82
2021/12/03 05:53:58;;;;;;;16.70;10.02;;;;;;;;;;4975050;28;20045;-82
2021/12/03 05:56:24;;;;;;;16.75;10.20;;;;;;;;;;4974788;28;20050;-82
2021/12/03 05:58:50;;;;;;;16.75;9.52;;;;;;;;;;4976271;28;20046;-82
2021/12/03 06:01:17;;;;;;;17.50;9.52;;;;;;;;;;4974864;28;20047;-82
2021/12/03 06:03:45;;;;;;;15.07;8.77;;;;;;;;;;4974907;28;20051;-82
2021/12/03 06:06:11;;;;;;;14.45;9.25;;;;;;;;;;4974529;28;20170;-82
2021/12/03 06:08:37;;;;;;;14.52;9.98;;;;;;;;;;4974787;28;20118;-82
2021/12/03 06:11:03;;;;;;;14.45;9.65;;;;;;;;;;4976027;28;20047;-82
2021/12/03 06:13:29;;;;;;;14.95;9.70;;;;;;;;;;4975864;28;20046;-82
2021/12/03 06:15:55;;;;;;;14.70;9.85;;;;;;;;;;4958589;28;20089;-82
2021/12/03 06:18:21;;;;;;;13.50;9.05;;;;;;;;;;4975511;28;20402;-82
2021/12/03 06:20:47;;;;;;;13.68;9.55;;;;;;;;;;4975041;28;20046;-82
2021/12/03 06:23:13;;;;;;;18.67;10.02;;;;;;;;;;4975211;28;20410;-82
2021/12/03 06:25:40;;;;;;;12.63;9.43;;;;;;;;;;4975827;28;20066;-82
2021/12/03 06:28:06;;;;;;;14.95;8.93;;;;;;;;;;4974139;28;20078;-82
2021/12/03 06:30:32;;;;;;;13.88;8.30;;;;;;;;;;4974208;28;20050;-82
2021/12/03 06:32:58;;;;;;;13.80;8.98;;;;;;;;;;4974090;28;20043;-82
2021/12/03 06:35:24;;;;;;;13.23;8.38;;;;;;;;;;4973978;28;20494;-82
2021/12/03 06:37:50;;;;;;;12.65;8.18;;;;;;;;;;4974069;28;20050;-82
2021/12/03 06:40:18;;;;;;;12.30;8.57;;;;;;;;;;4975410;28;20070;-82
2021/12/03 06:42:44;;;;;;;14.30;8.82;;;;;;;;;;4973674;28;20101;-82
2021/12/03 06:45:11;;;;;;;12.50;8.07;;;;;;;;;;4973861;28;20426;-82
2021/12/03 06:47:37;;;;;;;12.77;7.38;;;;;;;;;;4975332;28;20043;-82
2021/12/03 06:50:07;;;;;;;15.70;7.55;;;;;;;;;;4973954;28;20061;-82
2021/12/03 06:52:34;;;;;;;14.98;8.40;;;;;;;;;;4957641;28;20509;-82
2021/12/03 06:55:03;;;;;;;12.23;7.30;;;;;;;;;;4973854;28;20074;-82
2021/12/03 06:57:29;;;;;;;16.55;7.50;;;;;;;;;;4973494;28;20051;-82
2021/12/03 06:59:55;;;;;;;13.82;7.72;;;;;;;;;;4975013;28;20093;-82
2021/12/03 07:02:21;;;;;;;15.65;7.05;;;;;;;;;;4973668;28;20042;-82
2021/12/03 07:04:47;;;;;;;14.18;7.03;;;;;;;;;;4974583;28;20482;-81
2021/12/03 07:07:13;;;;;;;12.85;7.38;;;;;;;;;;4973238;28;20617;-82
2021/12/03 07:09:39;;;;;;;13.90;7.20;;;;;;;;;;4973583;28;20074;-82
2021/12/03 07:12:05;;;;;;;14.93;7.72;;;;;;;;;;4973148;28;20045;-82
2021/12/03 07:14:31;;;;;;;14.82;7.50;;;;;;;;;;4973665;28;20093;-82
2021/12/03 07:16:59;;;;;;;14.32;7.55;;;;;;;;;;4973085;28;20498;-82
2021/12/03 07:19:25;;;;;;;13.88;6.88;;;;;;;;;;4957196;28;20051;-82
2021/12/03 07:21:51;;;;;;;14.77;7.35;;;;;;;;;;4973034;28;20038;-82
2021/12/03 07:24:17;;;;;;;12.00;7.22;;;;;;;;;;4973107;28;20129;-82
2021/12/03 07:26:43;;;;;;;15.85;7.13;;;;;;;;;;4973232;28;20059;-82
2021/12/03 07:29:09;;;;;;;13.60;7.15;;;;;;;;;;4973057;28;20043;-82
2021/12/03 07:31:35;;;;;;;11.85;6.97;;;;;;;;;;4972926;28;20043;-82
2021/12/03 07:34:01;;;;;;;11.00;6.78;;;;;;;;;;4979759;28;20053;-82
2021/12/03 07:36:27;;;;;;;11.52;6.03;;;;;;;;;;4988777;28;20046;-81
2021/12/03 07:38:53;;;;;;;10.30;6.00;;;;;;;;;;4988787;28;20054;-81
2021/12/03 07:41:19;;;;;;;12.30;6.40;;;;;;;;;;4989107;28;20841;-81
2021/12/03 07:43:45;;;;;;;11.13;6.03;;;;;;;;;;4990344;28;20041;-81
2021/12/03 07:46:11;;;;;;;12.48;6.45;;;;;;;;;;4990589;28;20042;-81
2021/12/03 07:48:37;;;;;;;9.98;5.82;;;;;;;;;;4988799;28;20367;-81
2021/12/03 07:51:04;;;;;;;10.63;5.85;;;;;;;;;;4989208;28;20417;-80
2021/12/03 07:53:29;;;;;;;12.02;5.90;;;;;;;;;;4990256;28;20046;-81
2021/12/03 07:55:56;;;;;;;10.73;6.38;;;;;;;;;;4990411;28;20053;-85
2021/12/03 07:58:22;;;;;;;13.77;6.53;;;;;;;;;;4990234;28;20049;-84
2021/12/03 08:00:48;;;;;;;15.98;6.82;;;;;;;;;;4988981;28;20073;-83
2021/12/03 08:03:14;;;;;;;11.02;6.70;;;;;;;;;;4988541;28;20514;-80
2021/12/03 08:05:41;;;;;;;12.52;6.53;;;;;;;;;;4988735;28;20125;-81
2021/12/03 08:08:07;;;;;;;12.13;6.45;;;;;;;;;;4988615;28;20042;-79
2021/12/03 08:10:34;;;;;;;12.25;6.78;;;;;;;;;;4988819;28;20461;-84
2021/12/03 08:13:01;;;;;;;15.60;7.32;;;;;;;;;;4988943;28;20073;-83
2021/12/03 08:15:27;;;;;;;13.80;7.28;;;;;;;;;;4990139;28;20046;-83
2021/12/03 08:17:53;;;;;;;13.07;6.43;;;;;;;;;;4988915;28;20054;-82
2021/12/03 08:20:19;;;;;;;12.18;6.47;;;;;;;;;;4989123;28;20503;-80
2021/12/03 08:22:45;;;;;;;10.23;6.18;;;;;;;;;;4988236;28;20497;-82
2021/12/03 08:25:12;;;;;;;15.32;7.00;;;;;;;;;;4988537;28;20061;-81
2021/12/03 08:27:39;;;;;;;15.50;7.10;;;;;;;;;;4988481;28;20050;-81
2021/12/03 08:30:06;;;;;;;12.68;6.30;;;;;;;;;;4988413;28;20513;-81
2021/12/03 08:32:32;;;;;;;16.23;6.65;;;;;;;;;;4989857;28;20228;-81
2021/12/03 08:34:59;;;;;;;13.95;7.03;;;;;;;;;;4988550;28;20186;-81
2021/12/03 08:37:25;;;;;;;14.32;6.88;;;;;;;;;;4988456;28;20051;-81
2021/12/03 08:39:51;;;;;;;13.90;7.40;;;;;;;;;;4989754;28;20038;-81
2021/12/03 08:42:18;;;;;;;15.73;7.68;;;;;;;;;;4989270;28;20046;-81
2021/12/03 08:44:44;;;;;;;16.45;7.35;;;;;;;;;;4989517;28;20042;-81
2021/12/03 08:47:10;;;;;;;16.60;7.30;;;;;;;;;;4993574;28;20375;-81
2021/12/03 08:49:47;;;;;;;13.98;7.72;;;;;;;;;;4991871;28;20053;-81
2021/12/03 08:54:53;;;;;;;15.60;7.95;;;;;;;;;;4992138;28;20054;-82
2021/12/03 08:57:21;;;;;;;15.82;8.50;;;;;;;;;;4992074;28;20046;-82
2021/12/03 08:59:48;;;;;;;16.23;8.55;;;;;;;;;;4992800;28;20066;-82
2021/12/03 09:02:14;;;;;;;19.77;9.00;;;;;;;;;;4981978;28;20046;-82
2021/12/03 09:04:40;;;;;;;17.55;8.98;;;;;;;;;;4975454;28;20038;-81
2021/12/03 09:07:06;;;;;;;18.85;9.70;;;;;;;;;;4977118;28;20454;-81
2021/12/03 09:09:32;;;;;;;16.40;9.25;;;;;;;;;;4976075;28;20042;-81
2021/12/03 09:11:58;;;;;;;17.23;9.07;;;;;;;;;;4985655;28;20079;-82
2021/12/03 09:14:30;;;;;;;21.90;11.63;;;;;;;;;;4995003;28;20046;-82
2021/12/03 09:24:53;;;;;;;20.08;11.25;;;;;;;;;;4986599;28;20051;-82
2021/12/03 09:27:20;;;;;;;20.38;11.70;;;;;;;;;;4972971;28;20048;-82
2021/12/03 09:29:47;;;;;;;23.33;12.50;;;;;;;;;;4994633;28;20449;-82
2021/12/03 09:32:20;;;;;;;25.45;12.90;;;;;;;;;;4994827;28;20120;-82
2021/12/03 09:34:46;;;;;;;21.33;12.63;;;;;;;;;;4994529;28;20121;-82
2021/12/03 09:37:12;;;;;;;24.40;13.32;;;;;;;;;;4994473;28;20050;-82
2021/12/03 09:39:43;;;;;;;26.92;14.00;;;;;;;;;;4995649;28;20046;-82
2021/12/03 09:42:09;;;;;;;28.52;12.85;;;;;;;;;;4978615;28;20050;-82
2021/12/03 09:44:38;;;;;;;25.52;14.93;;;;;;;;;;4994540;28;20100;-82
2021/12/03 09:47:05;;;;;;;25.20;14.18;;;;;;;;;;4994532;28;20050;-82
2021/12/03 09:52:10;;;;;;;27.63;15.23;;;;;;;;;;4994442;28;20050;-82
2021/12/03 09:54:40;;;;;;;29.80;15.18;;;;;;;;;;4994120;28;20045;-82
2021/12/03 09:57:10;;;;;;;22.73;13.50;;;;;;;;;;4978624;28;20367;-82
2021/12/03 10:04:55;;;;;;;29.10;13.80;;;;;;;;;;4995407;28;20137;-82
2021/12/03 10:13:11;;;;;;;30.08;14.63;;;;;;;;;;4993798;28;20042;-82
2021/12/03 10:15:33;;;;;;;25.00;14.68;;;;;;;;;;4993749;28;20050;-81
2021/12/03 10:21:13;;;;;;;27.95;14.57;;;;;;;;;;4982868;28;20038;-81
2021/12/03 10:39:33;;;;;;;24.02;12.60;;;;;;;;;;4993387;28;20427;-80
2021/12/03 10:42:22;;;;;;;23.15;12.93;;;;;;;;;;4977189;28;20056;-81
2021/12/03 10:50:28;;;;;;;22.63;11.95;;;;;;;;;;4994361;28;20051;-81
2021/12/03 11:20:06;;;;;;;24.23;7.82;;;;;;;;;;4993702;28;20084;-80
2021/12/03 11:30:31;;;;;;;20.58;6.40;;;;;;;;;;4991963;28;20523;-80
2021/12/03 11:39:03;;;;;;;15.50;5.78;;;;;;;;;;4993613;28;20509;-80
2021/12/03 12:13:59;;;;;;;12.85;4.93;;;;;;;;;;4992965;28;20078;-81
2021/12/03 12:18:50;;;;;;;15.57;4.15;;;;;;;;;;4991936;28;20081;-81
2021/12/03 12:40:40;;;;;;;13.25;4.55;;;;;;;;;;4997031;28;20109;-81
2021/12/03 13:36:43;;;;;;;10.32;4.55;;;;;;;;;;4995995;28;20042;-80
2021/12/03 13:39:39;;;;;;;9.07;4.22;;;;;;;;;;4995432;28;20517;-80
2021/12/03 13:59:00;;;;;;;11.02;4.80;;;;;;;;;;4995461;28;20097;-80
2021/12/03 14:09:06;;;;;;;15.18;5.18;;;;;;;;;;4995393;28;20077;-80
2021/12/03 14:29:40;;;;;;;12.20;5.68;;;;;;;;;;4992839;28;20046;-80
2021/12/03 14:40:16;;;;;;;12.75;5.63;;;;;;;;;;4974456;28;20141;-81
2021/12/03 14:45:51;;;;;;;11.48;4.72;;;;;;;;;;4994474;28;20050;-81
2021/12/03 14:56:09;;;;;;;14.63;5.80;;;;;;;;;;4994704;28;20050;-81
2021/12/03 15:02:00;;;;;;;12.00;5.28;;;;;;;;;;4990587;28;20100;-82
2021/12/03 15:06:53;;;;;;;11.45;4.85;;;;;;;;;;4992862;28;20050;-82
2021/12/03 15:09:26;;;;;;;11.15;5.32;;;;;;;;;;4976946;28;20045;-81
2021/12/03 15:12:15;;;;;;;12.88;6.32;;;;;;;;;;4993158;28;20061;-81
2021/12/03 15:15:05;;;;;;;13.13;5.75;;;;;;;;;;4994114;28;20046;-81
2021/12/03 15:25:26;;;;;;;11.52;5.85;;;;;;;;;;4994079;28;20046;-82
2021/12/03 15:30:44;;;;;;;10.05;5.47;;;;;;;;;;4994174;28;20121;-82
2021/12/03 15:34:18;;;;;;;14.85;6.20;;;;;;;;;;4993747;28;20048;-81
2021/12/03 15:36:10;;;;;;;10.80;5.65;;;;;;;;;;4988881;28;20050;-82
2021/12/03 15:38:44;;;;;;;11.02;6.07;;;;;;;;;;4993637;28;20038;-82
2021/12/03 15:57:11;;;;;;;8.85;5.60;;;;;;;;;;4993544;28;20064;-82
2021/12/03 16:05:44;;;;;;;11.00;6.57;;;;;;;;;;4993412;28;20042;-82
2021/12/03 16:08:15;;;;;;;12.02;7.00;;;;;;;;;;4993069;28;20042;-82
2021/12/03 16:13:43;;;;;;;11.55;6.88;;;;;;;;;;4994280;28;20121;-82
2021/12/03 16:21:49;;;;;;;12.07;7.65;;;;;;;;;;4993196;28;20466;-81
2021/12/03 16:49:30;;;;;;;14.50;9.55;;;;;;;;;;4993033;28;20473;-82
2021/12/03 16:54:11;;;;;;;14.85;10.00;;;;;;;;;;4991859;28;20047;-82
2021/12/03 16:56:47;;;;;;;17.63;10.70;;;;;;;;;;4991916;28;20397;-82
2021/12/03 16:59:13;;;;;;;;;;;;;;;;;;4993306;28;20479;-83
2021/12/03 17:04:37;;;;;;;14.27;10.00;;;;;;;;;;4993016;28;20046;-83
2021/12/03 17:31:41;;;;;;;15.57;11.35;;;;;;;;;;4996336;28;20047;-82
2021/12/03 17:45:18;;;;;;;16.60;11.98;;;;;;;;;;4995641;28;20423;-83
2021/12/03 18:00:54;;;;;;;16.25;12.02;;;;;;;;;;4994353;28;20077;-82
2021/12/03 18:03:36;;;;;;;16.95;12.18;;;;;;;;;;4994145;28;20050;-82
2021/12/03 18:08:41;;;;;;;18.23;13.05;;;;;;;;;;4995502;28;20042;-82
2021/12/03 18:49:05;;;;;;;22.05;15.20;;;;;;;;;;4994805;28;20041;-82
2021/12/03 18:56:32;;;;;;;24.17;15.60;;;;;;;;;;4993437;28;20046;-82
2021/12/03 18:59:02;;;;;;;25.30;16.02;;;;;;;;;;4993442;28;20446;-82
2021/12/03 19:01:30;;;;;;;23.92;15.23;;;;;;;;;;4993198;28;20046;-82
2021/12/03 19:07:02;;;;;;;21.45;14.52;;;;;;;;;;4971515;28;20058;-82
2021/12/03 19:09:34;;;;;;;23.45;15.52;;;;;;;;;;4993235;28;20101;-82
2021/12/03 19:14:38;;;;;;;24.92;16.27;;;;;;;;;;4993095;28;20053;-82
2021/12/03 19:17:06;;;;;;;23.70;16.90;;;;;;;;;;4994483;28;20050;-83
2021/12/03 19:19:36;;;;;;;24.42;15.75;;;;;;;;;;4994047;28;20046;-82
2021/12/03 19:22:04;;;;;;;24.02;16.85;;;;;;;;;;4993130;28;20046;-82
2021/12/03 19:24:30;;;;;;;22.58;15.90;;;;;;;;;;4976372;28;20137;-82
2021/12/03 19:26:56;;;;;;;28.10;17.25;;;;;;;;;;4992885;28;20101;-82
2021/12/03 19:29:23;;;;;;;23.27;16.10;;;;;;;;;;4992585;28;20108;-82
2021/12/03 19:31:51;;;;;;;24.73;16.88;;;;;;;;;;4992979;28;20050;-82
2021/12/03 19:34:18;;;;;;;26.40;17.75;;;;;;;;;;4992875;28;20042;-82
2021/12/03 19:36:46;;;;;;;27.40;17.98;;;;;;;;;;4994216;28;20051;-82
2021/12/03 19:39:12;;;;;;;25.95;17.23;;;;;;;;;;4994131;28;20038;-83
2021/12/03 19:44:18;;;;;;;25.30;17.27;;;;;;;;;;4992420;28;20052;-82
2021/12/03 19:46:47;;;;;;;29.85;18.35;;;;;;;;;;4993984;28;20050;-82
2021/12/03 19:51:51;;;;;;;27.75;17.75;;;;;;;;;;4992475;28;20042;-82
2021/12/03 19:54:18;;;;;;;28.33;17.80;;;;;;;;;;4992769;28;20049;-82
2021/12/03 19:56:45;;;;;;;27.83;18.55;;;;;;;;;;4992582;28;20089;-84
2021/12/03 19:59:12;;;;;;;28.00;18.52;;;;;;;;;;4993870;28;20078;-82
2021/12/03 20:01:38;;;;;;;27.70;18.13;;;;;;;;;;4992352;28;20042;-82
2021/12/03 20:04:05;;;;;;;27.67;18.30;;;;;;;;;;4976373;28;20061;-82
2021/12/03 20:06:31;;;;;;;29.60;18.95;;;;;;;;;;4992035;28;20049;-82
2021/12/03 20:09:01;;;;;;;29.20;19.30;;;;;;;;;;4993436;28;20075;-82
2021/12/03 20:11:38;;;;;;;27.50;17.88;;;;;;;;;;4975865;28;20050;-82
2021/12/03 20:14:06;;;;;;;28.42;18.30;;;;;;;;;;4976311;28;20141;-82
2021/12/03 20:19:32;;;;;;;30.02;18.67;;;;;;;;;;4993612;28;20046;-82
2021/12/03 20:22:03;;;;;;;29.77;18.48;;;;;;;;;;4975765;28;20555;-82
2021/12/03 20:27:17;;;;;;;30.48;19.10;;;;;;;;;;4993272;28;20046;-82
2021/12/03 20:29:52;;;;;;;28.00;19.00;;;;;;;;;;4991820;28;20042;-82
2021/12/03 20:35:00;;;;;;;30.63;19.75;;;;;;;;;;4993308;28;20043;-82
2021/12/03 20:37:35;;;;;;;33.05;18.90;;;;;;;;;;4975892;28;20157;-82
2021/12/03 20:40:11;;;;;;;31.40;19.02;;;;;;;;;;4975777;28;20050;-82
2021/12/03 20:42:53;;;;;;;33.72;19.05;;;;;;;;;;4997189;28;20501;-82
2021/12/03 20:50:46;;;;;;;27.90;18.17;;;;;;;;;;4996763;28;20487;-82
2021/12/03 20:53:21;;;;;;;27.45;17.35;;;;;;;;;;4979614;28;20046;-82
2021/12/03 21:09:26;;;;;;;26.50;16.77;;;;;;;;;;4996913;28;20042;-82
2021/12/03 21:11:57;;;;;;;25.35;15.45;;;;;;;;;;4995315;28;20078;-82
2021/12/03 21:14:28;;;;;;;26.17;16.52;;;;;;;;;;4996884;28;20486;-82
2021/12/03 21:22:14;;;;;;;27.63;16.83;;;;;;;;;;4996612;28;20046;-81
2021/12/03 21:24:42;;;;;;;25.25;16.30;;;;;;;;;;4994942;28;20058;-81
2021/12/03 21:27:12;;;;;;;28.52;17.83;;;;;;;;;;4996155;28;20430;-81
2021/12/03 21:29:58;;;;;;;26.75;16.35;;;;;;;;;;4996654;28;20046;-81
2021/12/03 21:32:32;;;;;;;27.27;16.25;;;;;;;;;;4978874;28;20125;-81
2021/12/03 21:43:13;;;;;;;24.15;15.80;;;;;;;;;;4996353;28;20050;-85
2021/12/03 21:45:39;;;;;;;24.80;14.95;;;;;;;;;;4994759;28;20189;-81
2021/12/03 21:48:06;;;;;;;26.23;15.15;;;;;;;;;;4995159;28;20504;-81
2021/12/03 21:50:32;;;;;;;25.10;14.85;;;;;;;;;;4994365;28;20417;-81
2021/12/03 21:52:58;;;;;;;28.25;15.45;;;;;;;;;;4994235;28;20038;-81
2021/12/03 21:55:26;;;;;;;27.45;16.40;;;;;;;;;;4994635;28;20050;-81
2021/12/03 21:57:53;;;;;;;24.65;15.63;;;;;;;;;;4995561;28;20516;-81
2021/12/03 22:00:20;;;;;;;26.80;16.15;;;;;;;;;;4978192;28;20045;-81
2021/12/03 22:02:46;;;;;;;26.52;16.73;;;;;;;;;;4994577;28;20034;-81
2021/12/03 22:05:12;;;;;;;26.45;16.42;;;;;;;;;;4994432;28;20544;-81
2021/12/03 22:07:38;;;;;;;26.50;16.20;;;;;;;;;;4994210;28;20044;-81
2021/12/03 22:10:04;;;;;;;27.63;17.23;;;;;;;;;;4994538;28;20129;-81
2021/12/03 22:12:30;;;;;;;26.98;17.02;;;;;;;;;;4994152;28;20046;-81
2021/12/03 22:14:56;;;;;;;26.63;16.67;;;;;;;;;;4994500;28;20039;-81
2021/12/03 22:17:22;;;;;;;28.02;16.92;;;;;;;;;;4995431;28;20046;-81
2021/12/03 22:19:48;;;;;;;29.08;17.08;;;;;;;;;;4994505;28;20541;-81
2021/12/03 22:22:14;;;;;;;25.52;16.92;;;;;;;;;;4977629;28;20108;-81
2021/12/03 22:24:41;;;;;;;26.25;16.83;;;;;;;;;;4995251;28;20409;-81
2021/12/03 22:27:08;;;;;;;27.38;16.00;;;;;;;;;;4995290;28;20046;-81
2021/12/03 22:29:35;;;;;;;28.38;17.48;;;;;;;;;;4993997;28;20051;-81
2021/12/03 22:32:02;;;;;;;27.13;17.67;;;;;;;;;;4995175;28;20042;-81
2021/12/03 22:34:28;;;;;;;25.20;16.23;;;;;;;;;;4977908;28;20050;-81
2021/12/03 22:36:54;;;;;;;24.75;15.65;;;;;;;;;;4993690;28;20129;-81